sensor_id;sensor_type;location;lat;lon;timestamp;pressure;altitude;pressure_sealevel;temperature;humidity
65534;BME280;53640;55.838;37.184;2023-02-03T00:01:58;98392.72;;;-1.79;65.19
65534;BME280;53640;55.838;37.184;2023-02-03T00:04:25;98402.13;;;-1.77;65.42
65534;BME280;53640;55.838;37.184;2023-02-03T00:06:53;98392.19;;;-1.83;65.24
65534;BME280;53640;55.838;37.184;2023-02-03T00:09:19;98394.03;;;-1.84;65.08
65534;BME280;53640;55.838;37.184;2023-02-03T00:11:47;98389.03;;;-1.87;65.07
65534;BME280;53640;55.838;37.184;2023-02-03T00:14:14;98404.47;;;-1.82;65.01
65534;BME280;53640;55.838;37.184;2023-02-03T00:16:42;98369.44;;;-2.02;65.32
65534;BME280;53640;55.838;37.184;2023-02-03T00:19:12;98349.03;;;-2.18;65.49
65534;BME280;53640;55.838;37.184;2023-02-03T00:21:38;98369.97;;;-1.98;64.68
65534;BME280;53640;55.838;37.184;2023-02-03T00:24:05;98392.00;;;-1.98;64.60
65534;BME280;53640;55.838;37.184;2023-02-03T00:26:32;98358.41;;;-2.32;65.29
65534;BME280;53640;55.838;37.184;2023-02-03T00:28:59;98362.31;;;-2.10;64.88
65534;BME280;53640;55.838;37.184;2023-02-03T00:31:26;98373.09;;;-2.03;65.42
65534;BME280;53640;55.838;37.184;2023-02-03T00:33:55;98359.34;;;-2.06;65.25
65534;BME280;53640;55.838;37.184;2023-02-03T00:36:23;98361.09;;;-2.15;65.66
65534;BME280;53640;55.838;37.184;2023-02-03T00:38:50;98390.50;;;-1.92;65.21
65534;BME280;53640;55.838;37.184;2023-02-03T00:41:17;98375.91;;;-1.96;65.32
65534;BME280;53640;55.838;37.184;2023-02-03T00:43:46;98402.31;;;-1.78;65.58
65534;BME280;53640;55.838;37.184;2023-02-03T00:46:13;98375.59;;;-1.93;65.71
65534;BME280;53640;55.838;37.184;2023-02-03T00:48:40;98343.94;;;-2.03;65.55
65534;BME280;53640;55.838;37.184;2023-02-03T00:51:07;98337.25;;;-2.07;65.62
65534;BME280;53640;55.838;37.184;2023-02-03T00:53:34;98388.22;;;-1.79;65.49
65534;BME280;53640;55.838;37.184;2023-02-03T00:56:01;98321.84;;;-2.20;65.55
65534;BME280;53640;55.838;37.184;2023-02-03T00:58:27;98364.81;;;-1.92;65.56
65534;BME280;53640;55.838;37.184;2023-02-03T01:00:54;98394.22;;;-1.69;65.46
65534;BME280;53640;55.838;37.184;2023-02-03T01:03:22;98377.28;;;-1.84;65.54
65534;BME280;53640;55.838;37.184;2023-02-03T01:05:49;98382.59;;;-1.84;65.33
65534;BME280;53640;55.838;37.184;2023-02-03T01:08:16;98376.78;;;-1.88;65.46
65534;BME280;53640;55.838;37.184;2023-02-03T01:10:42;98321.84;;;-2.12;65.24
65534;BME280;53640;55.838;37.184;2023-02-03T01:13:08;98320.72;;;-2.09;65.54
65534;BME280;53640;55.838;37.184;2023-02-03T01:15:36;98391.22;;;-1.74;65.36
65534;BME280;53640;55.838;37.184;2023-02-03T01:18:03;98375.91;;;-1.88;65.38
65534;BME280;53640;55.838;37.184;2023-02-03T01:20:29;98351.72;;;-2.01;65.21
65534;BME280;53640;55.838;37.184;2023-02-03T01:22:57;98337.31;;;-1.99;65.58
65534;BME280;53640;55.838;37.184;2023-02-03T01:25:24;98336.13;;;-2.04;65.63
65534;BME280;53640;55.838;37.184;2023-02-03T01:27:51;98329.50;;;-2.00;65.74
65534;BME280;53640;55.838;37.184;2023-02-03T01:30:18;98343.59;;;-2.00;65.79
65534;BME280;53640;55.838;37.184;2023-02-03T01:32:45;98305.91;;;-2.28;65.61
65534;BME280;53640;55.838;37.184;2023-02-03T01:35:14;98375.59;;;-1.85;65.86
65534;BME280;53640;55.838;37.184;2023-02-03T01:37:42;98350.69;;;-2.09;65.70
65534;BME280;53640;55.838;37.184;2023-02-03T01:40:10;98311.88;;;-2.26;65.69
65534;BME280;53640;55.838;37.184;2023-02-03T01:42:37;98389.69;;;-1.85;65.73
65534;BME280;53640;55.838;37.184;2023-02-03T01:45:05;98349.69;;;-2.16;65.61
65534;BME280;53640;55.838;37.184;2023-02-03T01:47:49;98385.38;;;-1.86;65.73
65534;BME280;53640;55.838;37.184;2023-02-03T01:50:30;98361.00;;;-1.97;66.10
65534;BME280;53640;55.838;37.184;2023-02-03T01:53:01;98339.06;;;-2.16;65.90
65534;BME280;53640;55.838;37.184;2023-02-03T01:55:48;98380.41;;;-1.89;65.81
65534;BME280;53640;55.838;37.184;2023-02-03T01:58:38;98378.13;;;-1.84;66.23
65534;BME280;53640;55.838;37.184;2023-02-03T02:01:06;98363.97;;;-1.92;65.66
65534;BME280;53640;55.838;37.184;2023-02-03T02:03:48;98321.53;;;-2.17;66.21
65534;BME280;53640;55.838;37.184;2023-02-03T02:06:20;98347.22;;;-2.01;66.21
65534;BME280;53640;55.838;37.184;2023-02-03T02:08:49;98333.66;;;-2.06;66.16
65534;BME280;53640;55.838;37.184;2023-02-03T02:11:17;98384.91;;;-1.81;66.20
65534;BME280;53640;55.838;37.184;2023-02-03T02:13:47;98371.78;;;-1.99;66.05
65534;BME280;53640;55.838;37.184;2023-02-03T02:16:24;98339.75;;;-2.14;66.04
65534;BME280;53640;55.838;37.184;2023-02-03T02:19:42;98380.25;;;-1.87;66.52
65534;BME280;53640;55.838;37.184;2023-02-03T02:31:10;98378.94;;;-1.91;66.64
65534;BME280;53640;55.838;37.184;2023-02-03T02:39:19;98310.41;;;-2.20;66.49
65534;BME280;53640;55.838;37.184;2023-02-03T02:41:57;98348.75;;;-1.98;66.76
65534;BME280;53640;55.838;37.184;2023-02-03T02:44:32;98373.13;;;-1.87;66.76
65534;BME280;53640;55.838;37.184;2023-02-03T02:47:18;98305.91;;;-2.28;66.77
65534;BME280;53640;55.838;37.184;2023-02-03T02:50:04;98287.84;;;-2.33;66.77
65534;BME280;53640;55.838;37.184;2023-02-03T02:52:36;98379.25;;;-1.86;66.33
65534;BME280;53640;55.838;37.184;2023-02-03T02:55:15;98361.69;;;-1.95;66.75
65534;BME280;53640;55.838;37.184;2023-02-03T02:57:43;98314.56;;;-2.18;66.77
65534;BME280;53640;55.838;37.184;2023-02-03T03:00:16;98296.44;;;-2.39;66.88
65534;BME280;53640;55.838;37.184;2023-02-03T03:02:43;98328.50;;;-2.08;66.50
65534;BME280;53640;55.838;37.184;2023-02-03T03:05:10;98314.53;;;-2.26;67.25
65534;BME280;53640;55.838;37.184;2023-02-03T03:07:58;98333.78;;;-2.08;67.00
65534;BME280;53640;55.838;37.184;2023-02-03T03:10:31;98330.13;;;-2.15;67.01
65534;BME280;53640;55.838;37.184;2023-02-03T03:13:05;98321.88;;;-2.03;66.41
65534;BME280;53640;55.838;37.184;2023-02-03T03:15:34;98245.88;;;-2.53;66.68
65534;BME280;53640;55.838;37.184;2023-02-03T03:20:35;98372.50;;;-1.72;66.56
65534;BME280;53640;55.838;37.184;2023-02-03T03:23:06;98352.41;;;-1.91;66.78
65534;BME280;53640;55.838;37.184;2023-02-03T03:26:17;98371.66;;;-1.73;66.61
65534;BME280;53640;55.838;37.184;2023-02-03T03:28:59;98346.59;;;-1.87;66.42
65534;BME280;53640;55.838;37.184;2023-02-03T03:31:29;98232.97;;;-2.57;66.39
65534;BME280;53640;55.838;37.184;2023-02-03T03:33:55;98364.69;;;-1.74;66.82
65534;BME280;53640;55.838;37.184;2023-02-03T03:36:29;98329.84;;;-1.95;66.58
65534;BME280;53640;55.838;37.184;2023-02-03T03:39:12;98316.25;;;-2.00;66.61
65534;BME280;53640;55.838;37.184;2023-02-03T03:44:11;98354.75;;;-1.80;66.15
65534;BME280;53640;55.838;37.184;2023-02-03T03:46:42;98369.66;;;-1.71;66.58
65534;BME280;53640;55.838;37.184;2023-02-03T03:49:11;98372.50;;;-1.72;66.53
65534;BME280;53640;55.838;37.184;2023-02-03T03:52:06;98375.97;;;-1.72;66.57
65534;BME280;53640;55.838;37.184;2023-02-03T03:54:39;98334.16;;;-1.94;66.89
65534;BME280;53640;55.838;37.184;2023-02-03T03:57:23;98317.75;;;-2.06;66.81
65534;BME280;53640;55.838;37.184;2023-02-03T03:59:51;98357.03;;;-1.77;67.12
65534;BME280;53640;55.838;37.184;2023-02-03T04:02:21;98302.47;;;-2.12;67.21
65534;BME280;53640;55.838;37.184;2023-02-03T04:04:49;98359.56;;;-1.75;67.40
65534;BME280;53640;55.838;37.184;2023-02-03T04:07:16;98372.81;;;-1.67;67.23
65534;BME280;53640;55.838;37.184;2023-02-03T04:09:42;98321.22;;;-2.05;66.61
65534;BME280;53640;55.838;37.184;2023-02-03T04:12:18;98363.72;;;-1.73;67.09
65534;BME280;53640;55.838;37.184;2023-02-03T04:14:48;98349.78;;;-1.75;66.69
65534;BME280;53640;55.838;37.184;2023-02-03T04:17:15;98338.47;;;-1.85;67.03
65534;BME280;53640;55.838;37.184;2023-02-03T04:19:41;98332.00;;;-1.91;67.05
65534;BME280;53640;55.838;37.184;2023-02-03T04:22:10;98377.50;;;-1.61;67.13
65534;BME280;53640;55.838;37.184;2023-02-03T04:24:37;98330.50;;;-1.93;67.19
65534;BME280;53640;55.838;37.184;2023-02-03T04:27:04;98368.66;;;-1.70;67.12
65534;BME280;53640;55.838;37.184;2023-02-03T04:29:32;98320.41;;;-1.90;67.23
65534;BME280;53640;55.838;37.184;2023-02-03T04:31:59;98339.16;;;-1.83;67.65
65534;BME280;53640;55.838;37.184;2023-02-03T04:34:28;98383.94;;;-1.64;67.53
65534;BME280;53640;55.838;37.184;2023-02-03T04:36:58;98357.09;;;-1.69;67.37
65534;BME280;53640;55.838;37.184;2023-02-03T04:39:28;98378.00;;;-1.57;67.12
65534;BME280;53640;55.838;37.184;2023-02-03T04:41:54;98264.16;;;-2.34;67.27
65534;BME280;53640;55.838;37.184;2023-02-03T04:44:20;98309.78;;;-2.06;67.26
65534;BME280;53640;55.838;37.184;2023-02-03T04:46:47;98338.16;;;-1.82;67.59
65534;BME280;53640;55.838;37.184;2023-02-03T04:49:13;98260.53;;;-2.25;67.18
65534;BME280;53640;55.838;37.184;2023-02-03T04:51:47;98309.63;;;-1.96;67.17
65534;BME280;53640;55.838;37.184;2023-02-03T04:54:14;98300.00;;;-1.89;67.04
65534;BME280;53640;55.838;37.184;2023-02-03T04:56:42;98363.41;;;-1.53;67.12
65534;BME280;53640;55.838;37.184;2023-02-03T04:59:10;98298.19;;;-1.97;67.54
65534;BME280;53640;55.838;37.184;2023-02-03T05:01:38;98349.28;;;-1.62;67.36
65534;BME280;53640;55.838;37.184;2023-02-03T05:04:04;98313.28;;;-1.89;67.30
65534;BME280;53640;55.838;37.184;2023-02-03T05:06:31;98334.84;;;-1.76;67.60
65534;BME280;53640;55.838;37.184;2023-02-03T05:09:02;98266.50;;;-2.15;67.42
65534;BME280;53640;55.838;37.184;2023-02-03T05:11:28;98302.34;;;-1.94;67.60
65534;BME280;53640;55.838;37.184;2023-02-03T05:13:55;98270.97;;;-2.15;67.46
65534;BME280;53640;55.838;37.184;2023-02-03T05:16:21;98352.59;;;-1.60;67.32
65534;BME280;53640;55.838;37.184;2023-02-03T05:18:49;98379.81;;;-1.42;67.46
65534;BME280;53640;55.838;37.184;2023-02-03T05:21:16;98326.91;;;-1.76;67.27
65534;BME280;53640;55.838;37.184;2023-02-03T05:23:44;98298.34;;;-1.98;67.28
65534;BME280;53640;55.838;37.184;2023-02-03T05:26:12;98301.84;;;-1.90;67.38
65534;BME280;53640;55.838;37.184;2023-02-03T05:28:39;98255.25;;;-2.25;67.27
65534;BME280;53640;55.838;37.184;2023-02-03T05:31:05;98337.66;;;-1.69;67.33
65534;BME280;53640;55.838;37.184;2023-02-03T05:33:33;98310.47;;;-1.79;67.44
65534;BME280;53640;55.838;37.184;2023-02-03T05:36:06;98305.81;;;-1.94;67.48
65534;BME280;53640;55.838;37.184;2023-02-03T05:38:33;98396.25;;;-1.38;67.55
65534;BME280;53640;55.838;37.184;2023-02-03T05:41:01;98346.78;;;-1.64;67.27
65534;BME280;53640;55.838;37.184;2023-02-03T05:43:46;98343.47;;;-1.66;67.49
65534;BME280;53640;55.838;37.184;2023-02-03T05:46:12;98280.63;;;-1.98;67.25
65534;BME280;53640;55.838;37.184;2023-02-03T05:48:40;98270.50;;;-2.02;67.13
65534;BME280;53640;55.838;37.184;2023-02-03T05:51:07;98296.22;;;-1.87;67.45
65534;BME280;53640;55.838;37.184;2023-02-03T05:53:34;98367.03;;;-1.38;67.32
65534;BME280;53640;55.838;37.184;2023-02-03T05:56:01;98353.59;;;-1.45;67.43
65534;BME280;53640;55.838;37.184;2023-02-03T05:58:29;98311.31;;;-1.71;67.53
65534;BME280;53640;55.838;37.184;2023-02-03T06:00:56;98346.16;;;-1.57;67.53
65534;BME280;53640;55.838;37.184;2023-02-03T06:03:23;98352.09;;;-1.39;67.49
65534;BME280;53640;55.838;37.184;2023-02-03T06:05:49;98329.03;;;-1.55;67.43
65534;BME280;53640;55.838;37.184;2023-02-03T06:08:17;98319.63;;;-1.57;67.23
65534;BME280;53640;55.838;37.184;2023-02-03T06:10:45;98359.91;;;-1.29;67.31
65534;BME280;53640;55.838;37.184;2023-02-03T06:13:18;98369.38;;;-1.27;67.15
65534;BME280;53640;55.838;37.184;2023-02-03T06:15:44;98302.00;;;-1.59;67.37
65534;BME280;53640;55.838;37.184;2023-02-03T06:18:12;98356.41;;;-1.22;67.12
65534;BME280;53640;55.838;37.184;2023-02-03T06:20:39;98357.06;;;-1.28;67.22
65534;BME280;53640;55.838;37.184;2023-02-03T06:23:05;98375.00;;;-1.14;67.17
65534;BME280;53640;55.838;37.184;2023-02-03T06:25:31;98386.28;;;-1.03;66.98
65534;BME280;53640;55.838;37.184;2023-02-03T06:27:58;98363.72;;;-1.24;67.25
65534;BME280;53640;55.838;37.184;2023-02-03T06:30:26;98351.44;;;-1.25;67.06
65534;BME280;53640;55.838;37.184;2023-02-03T06:32:53;98376.50;;;-1.11;66.97
65534;BME280;53640;55.838;37.184;2023-02-03T06:35:24;98317.78;;;-1.49;66.76
65534;BME280;53640;55.838;37.184;2023-02-03T06:37:56;98382.94;;;-1.05;66.60
65534;BME280;53640;55.838;37.184;2023-02-03T06:40:27;98370.66;;;-1.06;66.81
65534;BME280;53640;55.838;37.184;2023-02-03T06:42:53;98309.31;;;-1.44;66.95
65534;BME280;53640;55.838;37.184;2023-02-03T06:45:21;98285.94;;;-1.57;66.85
65534;BME280;53640;55.838;37.184;2023-02-03T06:47:49;98318.75;;;-1.33;66.95
65534;BME280;53640;55.838;37.184;2023-02-03T06:50:17;98267.19;;;-1.64;66.72
65534;BME280;53640;55.838;37.184;2023-02-03T06:52:52;98299.19;;;-1.49;66.13
65534;BME280;53640;55.838;37.184;2023-02-03T06:55:22;98239.00;;;-1.81;65.84
65534;BME280;53640;55.838;37.184;2023-02-03T06:57:49;98263.22;;;-1.68;66.13
65534;BME280;53640;55.838;37.184;2023-02-03T07:00:26;98359.88;;;-0.97;65.24
65534;BME280;53640;55.838;37.184;2023-02-03T07:03:02;98237.38;;;-1.82;65.32
65534;BME280;53640;55.838;37.184;2023-02-03T07:05:44;98307.16;;;-1.32;65.86
65534;BME280;53640;55.838;37.184;2023-02-03T07:08:20;98194.25;;;-1.92;65.65
65534;BME280;53640;55.838;37.184;2023-02-03T07:10:47;98387.56;;;-0.67;66.33
65534;BME280;53640;55.838;37.184;2023-02-03T07:13:19;98318.38;;;-0.98;66.43
65534;BME280;53640;55.838;37.184;2023-02-03T07:15:49;98382.50;;;-0.45;66.37
65534;BME280;53640;55.838;37.184;2023-02-03T07:18:22;98298.56;;;-0.79;66.31
65534;BME280;53640;55.838;37.184;2023-02-03T07:20:52;98233.38;;;-0.98;64.60
65534;BME280;53640;55.838;37.184;2023-02-03T07:23:18;98311.53;;;-0.37;65.09
65534;BME280;53640;55.838;37.184;2023-02-03T07:25:46;98315.88;;;-0.13;65.22
65534;BME280;53640;55.838;37.184;2023-02-03T07:28:14;98325.84;;;0.17;65.43
65534;BME280;53640;55.838;37.184;2023-02-03T07:37:24;98392.69;;;0.45;62.68
65534;BME280;53640;55.838;37.184;2023-02-03T07:39:54;98395.88;;;0.40;62.20
65534;BME280;53640;55.838;37.184;2023-02-03T07:42:21;98383.47;;;0.32;62.04
65534;BME280;53640;55.838;37.184;2023-02-03T07:44:52;98399.78;;;0.29;61.83
65534;BME280;53640;55.838;37.184;2023-02-03T07:47:19;98297.31;;;-0.52;60.64
65534;BME280;53640;55.838;37.184;2023-02-03T07:49:46;98266.28;;;-0.68;60.67
65534;BME280;53640;55.838;37.184;2023-02-03T07:52:12;98270.84;;;-0.84;60.61
65534;BME280;53640;55.838;37.184;2023-02-03T07:54:42;98270.47;;;-0.73;60.72
65534;BME280;53640;55.838;37.184;2023-02-03T07:57:10;98227.41;;;-1.00;61.17
65534;BME280;53640;55.838;37.184;2023-02-03T07:59:38;98319.69;;;-0.46;61.72
65534;BME280;53640;55.838;37.184;2023-02-03T08:02:05;98242.66;;;-0.86;61.90
65534;BME280;53640;55.838;37.184;2023-02-03T08:04:36;98281.84;;;-0.48;62.31
65534;BME280;53640;55.838;37.184;2023-02-03T08:07:14;98315.16;;;-0.29;62.13
65534;BME280;53640;55.838;37.184;2023-02-03T08:09:49;98382.38;;;0.19;62.68
65534;BME280;53640;55.838;37.184;2023-02-03T08:12:15;98280.69;;;-0.54;61.27
65534;BME280;53640;55.838;37.184;2023-02-03T08:14:42;98228.16;;;-0.83;59.71
65534;BME280;53640;55.838;37.184;2023-02-03T08:17:10;98389.75;;;0.08;61.03
65534;BME280;53640;55.838;37.184;2023-02-03T08:19:40;98213.63;;;-0.95;60.71
65534;BME280;53640;55.838;37.184;2023-02-03T08:22:10;98231.44;;;-0.73;61.40
65534;BME280;53640;55.838;37.184;2023-02-03T08:24:45;98309.22;;;-0.40;61.33
65534;BME280;53640;55.838;37.184;2023-02-03T08:27:17;98369.66;;;0.06;61.48
65534;BME280;53640;55.838;37.184;2023-02-03T08:29:43;98310.06;;;-0.47;61.26
65534;BME280;53640;55.838;37.184;2023-02-03T08:32:23;98324.09;;;-0.30;61.80
65534;BME280;53640;55.838;37.184;2023-02-03T08:35:02;98312.56;;;-0.46;61.24
65534;BME280;53640;55.838;37.184;2023-02-03T08:37:33;98272.28;;;-0.66;61.09
65534;BME280;53640;55.838;37.184;2023-02-03T08:40:01;98378.31;;;-0.00;61.56
65534;BME280;53640;55.838;37.184;2023-02-03T08:42:29;98348.19;;;-0.24;61.91
65534;BME280;53640;55.838;37.184;2023-02-03T08:44:58;98263.63;;;-0.68;62.12
65534;BME280;53640;55.838;37.184;2023-02-03T08:47:25;98324.00;;;-0.37;62.08
65534;BME280;53640;55.838;37.184;2023-02-03T08:49:54;98272.25;;;-0.57;62.44
65534;BME280;53640;55.838;37.184;2023-02-03T08:52:22;98389.91;;;0.07;63.08
65534;BME280;53640;55.838;37.184;2023-02-03T08:54:49;98348.84;;;-0.22;62.75
65534;BME280;53640;55.838;37.184;2023-02-03T08:57:18;98363.06;;;-0.06;61.59
65534;BME280;53640;55.838;37.184;2023-02-03T08:59:45;98356.44;;;-0.10;62.62
65534;BME280;53640;55.838;37.184;2023-02-03T09:02:15;98341.84;;;-0.15;62.56
65534;BME280;53640;55.838;37.184;2023-02-03T09:04:43;98357.41;;;-0.03;63.29
65534;BME280;53640;55.838;37.184;2023-02-03T09:07:12;98365.97;;;0.07;63.05
65534;BME280;53640;55.838;37.184;2023-02-03T09:09:39;98359.75;;;-0.08;63.57
65534;BME280;53640;55.838;37.184;2023-02-03T09:12:07;98344.13;;;-0.12;63.40
65534;BME280;53640;55.838;37.184;2023-02-03T09:14:34;98363.66;;;0.04;63.11
65534;BME280;53640;55.838;37.184;2023-02-03T09:17:03;98338.47;;;-0.08;63.52
65534;BME280;53640;55.838;37.184;2023-02-03T09:19:31;98309.00;;;-0.30;63.53
65534;BME280;53640;55.838;37.184;2023-02-03T09:21:57;98373.78;;;0.08;63.20
65534;BME280;53640;55.838;37.184;2023-02-03T09:24:24;98317.47;;;-0.34;63.65
65534;BME280;53640;55.838;37.184;2023-02-03T09:26:51;98389.63;;;0.02;64.06
65534;BME280;53640;55.838;37.184;2023-02-03T09:29:19;98224.88;;;-0.85;63.52
65534;BME280;53640;55.838;37.184;2023-02-03T09:31:57;98249.91;;;-0.71;64.28
65534;BME280;53640;55.838;37.184;2023-02-03T09:35:01;98282.22;;;-0.59;64.58
65534;BME280;53640;55.838;37.184;2023-02-03T09:37:37;98204.19;;;-1.06;64.87
65534;BME280;53640;55.838;37.184;2023-02-03T09:40:29;98277.22;;;-0.54;64.65
65534;BME280;53640;55.838;37.184;2023-02-03T09:47:42;98285.00;;;-0.45;66.16
65534;BME280;53640;55.838;37.184;2023-02-03T09:54:12;98237.06;;;-0.68;65.22
65534;BME280;53640;55.838;37.184;2023-02-03T09:56:56;98368.97;;;0.12;65.93
65534;BME280;53640;55.838;37.184;2023-02-03T10:00:05;98322.06;;;-0.20;64.85
65534;BME280;53640;55.838;37.184;2023-02-03T10:11:46;98284.50;;;-0.48;65.73
65534;BME280;53640;55.838;37.184;2023-02-03T10:18:28;98219.91;;;-0.88;65.83
65534;BME280;53640;55.838;37.184;2023-02-03T10:21:02;98339.28;;;-0.08;66.09
65534;BME280;53640;55.838;37.184;2023-02-03T10:23:36;98298.28;;;-0.45;66.47
65534;BME280;53640;55.838;37.184;2023-02-03T10:31:15;98300.75;;;-0.43;66.71
65534;BME280;53640;55.838;37.184;2023-02-03T10:33:46;98218.56;;;-0.84;67.13
65534;BME280;53640;55.838;37.184;2023-02-03T10:36:21;98357.03;;;-0.00;66.76
65534;BME280;53640;55.838;37.184;2023-02-03T10:39:22;98274.03;;;-0.50;65.52
65534;BME280;53640;55.838;37.184;2023-02-03T10:41:52;98296.44;;;-0.44;66.59
65534;BME280;53640;55.838;37.184;2023-02-03T10:44:24;98224.88;;;-0.85;65.91
65534;BME280;53640;55.838;37.184;2023-02-03T10:46:59;98338.56;;;-0.25;66.92
65534;BME280;53640;55.838;37.184;2023-02-03T10:49:26;98282.66;;;-0.48;65.55
65534;BME280;53640;55.838;37.184;2023-02-03T10:51:58;98200.00;;;-0.92;66.51
65534;BME280;53640;55.838;37.184;2023-02-03T10:54:32;98247.69;;;-0.59;65.68
65534;BME280;53640;55.838;37.184;2023-02-03T10:57:11;98325.47;;;-0.03;65.69
65534;BME280;53640;55.838;37.184;2023-02-03T11:03:25;98338.13;;;0.18;66.13
65534;BME280;53640;55.838;37.184;2023-02-03T11:06:05;98224.72;;;-0.52;66.43
65534;BME280;53640;55.838;37.184;2023-02-03T11:08:34;98271.53;;;-0.20;66.22
65534;BME280;53640;55.838;37.184;2023-02-03T11:11:07;98262.53;;;-0.11;65.73
65534;BME280;53640;55.838;37.184;2023-02-03T11:13:37;98271.81;;;-0.07;66.18
65534;BME280;53640;55.838;37.184;2023-02-03T11:19:28;98233.84;;;-0.24;66.17
65534;BME280;53640;55.838;37.184;2023-02-03T11:22:00;98162.38;;;-0.73;66.02
65534;BME280;53640;55.838;37.184;2023-02-03T11:24:45;98220.25;;;-0.29;65.37
65534;BME280;53640;55.838;37.184;2023-02-03T11:27:16;98195.28;;;-0.51;66.12
65534;BME280;53640;55.838;37.184;2023-02-03T11:29:50;98270.53;;;0.04;65.77
65534;BME280;53640;55.838;37.184;2023-02-03T11:32:36;98224.38;;;-0.26;66.13
65534;BME280;53640;55.838;37.184;2023-02-03T11:35:21;98297.69;;;0.22;66.12
65534;BME280;53640;55.838;37.184;2023-02-03T11:37:53;98225.91;;;-0.32;65.94
65534;BME280;53640;55.838;37.184;2023-02-03T11:50:44;98325.56;;;0.34;64.95
65534;BME280;53640;55.838;37.184;2023-02-03T12:05:27;98308.53;;;0.21;66.07
65534;BME280;53640;55.838;37.184;2023-02-03T12:13:55;98261.44;;;-0.25;66.18
65534;BME280;53640;55.838;37.184;2023-02-03T12:16:48;98312.06;;;0.13;65.94
65534;BME280;53640;55.838;37.184;2023-02-03T12:22:02;98178.16;;;-0.71;66.54
65534;BME280;53640;55.838;37.184;2023-02-03T12:27:50;98329.03;;;0.12;65.95
65534;BME280;53640;55.838;37.184;2023-02-03T12:30:24;98298.16;;;0.03;65.94
65534;BME280;53640;55.838;37.184;2023-02-03T12:35:52;98278.78;;;-0.06;65.61
65534;BME280;53640;55.838;37.184;2023-02-03T12:38:51;98302.53;;;-0.04;65.20
65534;BME280;53640;55.838;37.184;2023-02-03T12:41:24;98294.06;;;-0.08;64.91
65534;BME280;53640;55.838;37.184;2023-02-03T12:43:56;98234.69;;;-0.54;64.73
65534;BME280;53640;55.838;37.184;2023-02-03T12:46:38;98298.56;;;-0.08;65.24
65534;BME280;53640;55.838;37.184;2023-02-03T12:49:25;98259.91;;;-0.19;64.31
65534;BME280;53640;55.838;37.184;2023-02-03T12:52:25;98319.91;;;0.06;65.00
65534;BME280;53640;55.838;37.184;2023-02-03T12:55:22;98313.31;;;0.02;65.40
65534;BME280;53640;55.838;37.184;2023-02-03T12:58:10;98312.81;;;-0.01;65.72
65534;BME280;53640;55.838;37.184;2023-02-03T13:01:07;98272.13;;;-0.33;65.45
65534;BME280;53640;55.838;37.184;2023-02-03T13:12:00;98311.31;;;-0.04;65.81
65534;BME280;53640;55.838;37.184;2023-02-03T13:14:46;98276.38;;;-0.24;66.25
65534;BME280;53640;55.838;37.184;2023-02-03T13:20:53;98258.88;;;-0.41;66.27
65534;BME280;53640;55.838;37.184;2023-02-03T13:23:21;98170.97;;;-1.02;66.41
65534;BME280;53640;55.838;37.184;2023-02-03T13:31:51;98225.34;;;-0.81;66.19
65534;BME280;53640;55.838;37.184;2023-02-03T13:43:03;98227.38;;;-0.92;66.09
65534;BME280;53640;55.838;37.184;2023-02-03T13:45:54;98245.97;;;-0.92;66.86
65534;BME280;53640;55.838;37.184;2023-02-03T13:48:29;98263.81;;;-0.69;66.00
65534;BME280;53640;55.838;37.184;2023-02-03T13:51:13;98198.94;;;-1.22;66.06
65534;BME280;53640;55.838;37.184;2023-02-03T13:54:02;98201.91;;;-1.17;66.55
65534;BME280;53640;55.838;37.184;2023-02-03T13:56:39;98232.91;;;-1.01;66.53
65534;BME280;53640;55.838;37.184;2023-02-03T13:59:48;98324.88;;;-0.45;66.39
65534;BME280;53640;55.838;37.184;2023-02-03T14:02:55;98327.53;;;-0.45;67.04
65534;BME280;53640;55.838;37.184;2023-02-03T14:05:47;98154.91;;;-1.48;66.64
65534;BME280;53640;55.838;37.184;2023-02-03T14:23:12;98323.22;;;-0.54;67.58
65534;BME280;53640;55.838;37.184;2023-02-03T14:25:57;98196.50;;;-1.40;67.23
65534;BME280;53640;55.838;37.184;2023-02-03T14:28:44;98334.03;;;-0.55;67.41
65534;BME280;53640;55.838;37.184;2023-02-03T14:31:21;98268.06;;;-0.91;67.48
65534;BME280;53640;55.838;37.184;2023-02-03T14:34:04;98325.25;;;-0.56;67.65
65534;BME280;53640;55.838;37.184;2023-02-03T14:36:46;98268.88;;;-0.91;67.51
65534;BME280;53640;55.838;37.184;2023-02-03T14:42:59;98331.91;;;-0.60;67.59
65534;BME280;53640;55.838;37.184;2023-02-03T14:51:38;98298.91;;;-0.82;67.77
65534;BME280;53640;55.838;37.184;2023-02-03T14:57:52;98286.97;;;-0.94;67.55
65534;BME280;53640;55.838;37.184;2023-02-03T15:00:53;98306.38;;;-0.77;67.82
65534;BME280;53640;55.838;37.184;2023-02-03T15:03:39;98162.41;;;-1.60;67.79
65534;BME280;53640;55.838;37.184;2023-02-03T15:06:56;98244.72;;;-1.20;68.06
65534;BME280;53640;55.838;37.184;2023-02-03T15:13:32;98254.97;;;-1.09;68.41
65534;BME280;53640;55.838;37.184;2023-02-03T15:16:14;98301.09;;;-0.86;68.21
65534;BME280;53640;55.838;37.184;2023-02-03T15:19:13;98148.16;;;-1.75;68.25
65534;BME280;53640;55.838;37.184;2023-02-03T15:22:00;98165.38;;;-1.63;68.35
65534;BME280;53640;55.838;37.184;2023-02-03T15:24:35;98331.06;;;-0.69;68.03
65534;BME280;53640;55.838;37.184;2023-02-03T15:27:28;98330.94;;;-0.67;68.38
65534;BME280;53640;55.838;37.184;2023-02-03T15:37:22;98304.72;;;-0.87;68.49
65534;BME280;53640;55.838;37.184;2023-02-03T15:46:53;98296.16;;;-1.05;68.30
65534;BME280;53640;55.838;37.184;2023-02-03T15:49:58;98237.84;;;-1.46;68.34
65534;BME280;53640;55.838;37.184;2023-02-03T15:56:31;98337.09;;;-0.75;68.64
65534;BME280;53640;55.838;37.184;2023-02-03T16:03:13;98221.59;;;-1.59;68.82
65534;BME280;53640;55.838;37.184;2023-02-03T16:06:18;98350.06;;;-0.88;68.81
65534;BME280;53640;55.838;37.184;2023-02-03T16:09:31;98347.38;;;-0.80;68.77
65534;BME280;53640;55.838;37.184;2023-02-03T16:17:57;98337.63;;;-0.96;68.56
65534;BME280;53640;55.838;37.184;2023-02-03T16:20:30;98356.88;;;-0.86;68.25
65534;BME280;53640;55.838;37.184;2023-02-03T16:23:35;98282.44;;;-1.41;68.71
65534;BME280;53640;55.838;37.184;2023-02-03T16:35:04;98255.44;;;-1.77;68.47
65534;BME280;53640;55.838;37.184;2023-02-03T16:38:18;98364.19;;;-1.20;68.92